In Rescue
 
Open Full Screen Window  High Contrast Mode
Wind Gusting 00 knots
05
August 09, 2020 6:55 PM CDT
Weather Information
Wind Direction
  240 °
Wind Speed
  05 kt (6 mph)
Wind Gust
  00 kt (0 mph)
Altimeter
29.81 in
Visibility
10 SM
Temperature
29° C
84° F
Dewpoint
22° C
72° F
Humidity
66%
1hr Rain Fall
00.00 in.
24hr Rain Fall
00.03 in.
Sky Condition
Scattered @ 4,500 ft
Scattered @ 3,800 ft
VFR

METAR KRGK 092355Z AUTO 24005KT 10SM SCT038 SCT045 29/22 A2981 RMK AO2

FAA Disclaimer: The data displayed is for advisory purposes only and is not to be used for flight planning or operations.